Terminal Aerodrome Forecast
Issued by NWS Chicago, IL

Home | Current Version | Previous Version | Text Only | Print | Product List | Glossary Off
Versions: 1 2 3 4 5 6 7 8 9 10 11 12 13 14 15 16 17 18 19 20 21 22 23 24 25

000
FTUS43 KLOT 300545
TAFRFD
TAF
KRFD 300545Z 3006/3106 27006KT P6SM SCT100
     FM301500 26015G23KT P6SM BKN060 PROB30 3019/3024 6SM -SHRA
     FM310100 27007KT P6SM SCT090=

USA.gov is the U.S. government's official web portal to all federal, state and local government web resources and services.